Time;durP1;ratioP1;P1;durP2;ratioP2;P2;SDS_P1;SDS_P2;PMS_P1;PMS_P2;Temp;Humidity;BMP_temperature;BMP_pressure;BME280_temperature;BME280_humidity;BME280_pressure;Samples;Min_cycle;Max_cycle;Signal;HPM_P1;HPM_P2
2023/03/01 00:01:16;;;;;;;1.58;1.13;;;23.40;53.60;;;;;;5051152;28;20191;-59
2023/03/01 00:03:47;;;;;;;2.47;1.20;;;23.40;53.60;;;;;;5051210;28;20217;-59
2023/03/01 00:06:17;;;;;;;2.55;1.45;;;23.40;53.70;;;;;;5050953;28;20195;-59
2023/03/01 00:08:48;;;;;;;1.50;1.40;;;23.50;53.80;;;;;;5050753;28;20216;-59
2023/03/01 00:11:21;;;;;;;1.80;1.20;;;23.50;53.80;;;;;;5050845;28;20195;-59
2023/03/01 00:13:54;;;;;;;3.08;1.35;;;23.50;53.90;;;;;;5050778;28;20298;-59
2023/03/01 00:16:28;;;;;;;1.83;1.40;;;23.50;54.50;;;;;;5050461;28;20207;-59
2023/03/01 00:18:59;;;;;;;1.30;1.10;;;23.60;54.00;;;;;;5050495;28;20199;-59
2023/03/01 00:21:30;;;;;;;1.75;1.42;;;23.60;54.00;;;;;;5050681;28;20192;-59
2023/03/01 00:24:01;;;;;;;1.77;1.38;;;23.70;54.00;;;;;;5050192;28;20702;-59
2023/03/01 00:26:32;;;;;;;1.75;1.20;;;23.70;54.00;;;;;;5050389;28;20225;-59
2023/03/01 00:29:03;;;;;;;1.27;1.00;;;23.80;54.10;;;;;;5050828;28;20691;-59
2023/03/01 00:31:36;;;;;;;3.25;1.35;;;23.70;54.60;;;;;;5050796;28;20203;-59
2023/03/01 00:34:07;;;;;;;2.53;1.40;;;23.80;54.10;;;;;;5050834;28;20222;-59
2023/03/01 00:36:39;;;;;;;1.73;1.30;;;23.80;54.10;;;;;;5051040;28;20196;-59
2023/03/01 00:39:13;;;;;;;1.83;1.45;;;23.80;54.10;;;;;;5048649;28;20200;-59
2023/03/01 00:41:44;;;;;;;3.20;1.30;;;23.90;54.10;;;;;;5033411;28;20235;-59
2023/03/01 00:44:15;;;;;;;2.85;1.40;;;23.90;54.10;;;;;;5034033;28;20216;-59
2023/03/01 00:46:47;;;;;;;2.58;1.23;;;23.90;54.20;;;;;;5034271;28;20196;-59
2023/03/01 00:49:18;;;;;;;2.20;1.20;;;24.00;54.30;;;;;;5034314;28;20220;-59
2023/03/01 00:51:49;;;;;;;1.73;1.50;;;24.00;54.20;;;;;;5033959;28;20204;-59
2023/03/01 00:54:21;;;;;;;2.88;1.50;;;24.00;54.30;;;;;;5033628;28;20227;-59
2023/03/01 00:56:52;;;;;;;2.83;1.63;;;24.10;54.30;;;;;;5043488;28;20591;-60
2023/03/01 00:59:22;;;;;;;2.45;1.30;;;24.10;54.30;;;;;;5053800;28;20292;-59
2023/03/01 01:02:01;;;;;;;1.48;1.00;;;24.20;54.30;;;;;;5054456;28;20199;-59
2023/03/01 01:04:32;;;;;;;3.25;1.50;;;24.20;54.30;;;;;;5050565;28;20214;-59
2023/03/01 01:07:03;;;;;;;4.43;1.70;;;24.20;54.20;;;;;;5053839;28;20196;-59
2023/03/01 01:09:34;;;;;;;2.45;1.60;;;24.30;54.30;;;;;;5053761;28;20235;-60
2023/03/01 01:12:04;;;;;;;1.50;1.35;;;24.30;54.30;;;;;;5046093;28;20558;-59
2023/03/01 01:14:35;;;;;;;2.58;1.48;;;24.30;54.30;;;;;;5033316;28;20216;-59
2023/03/01 01:17:08;;;;;;;3.33;1.60;;;24.30;54.30;;;;;;5033886;28;20683;-59
2023/03/01 01:19:39;;;;;;;2.60;1.48;;;24.40;54.20;;;;;;5033563;28;20199;-59
2023/03/01 01:22:10;;;;;;;1.73;1.30;;;24.40;54.20;;;;;;5032963;28;20567;-59
2023/03/01 01:24:40;;;;;;;2.30;1.27;;;24.50;54.30;;;;;;5033204;28;20219;-59
2023/03/01 01:27:11;;;;;;;2.22;1.17;;;24.50;54.40;;;;;;5046546;28;20196;-59
2023/03/01 01:29:42;;;;;;;2.10;1.50;;;24.50;54.40;;;;;;5053399;28;20222;-59
2023/03/01 01:32:14;;;;;;;2.88;1.65;;;24.50;54.30;;;;;;5053993;28;20557;-59
2023/03/01 01:34:46;;;;;;;1.88;1.70;;;24.60;54.40;;;;;;5053364;28;20199;-59
2023/03/01 01:37:17;;;;;;;2.42;1.65;;;24.60;54.30;;;;;;5053575;28;20358;-60
2023/03/01 01:39:47;;;;;;;3.17;1.52;;;24.70;54.30;;;;;;5053268;28;20196;-60
2023/03/01 01:42:20;;;;;;;2.67;1.30;;;24.70;54.30;;;;;;5052456;28;20451;-60
2023/03/01 01:45:11;;;;;;;2.95;1.50;;;24.70;54.20;;;;;;5034877;28;20200;-60
2023/03/01 01:47:43;;;;;;;1.48;1.38;;;24.80;54.30;;;;;;5033104;28;20222;-59
2023/03/01 01:50:20;;;;;;;1.98;1.45;;;24.80;54.20;;;;;;5032911;28;20239;-59
2023/03/01 01:52:53;;;;;;;2.63;1.40;;;24.90;54.10;;;;;;5032402;28;20219;-60
2023/03/01 01:55:27;;;;;;;3.90;1.73;;;24.90;54.10;;;;;;5032402;28;20200;-60
2023/03/01 01:58:00;;;;;;;2.72;1.75;;;24.90;54.10;;;;;;5051517;28;20253;-59
2023/03/01 02:00:32;;;;;;;2.58;1.73;;;24.90;54.10;;;;;;5052484;28;20200;-60
2023/03/01 02:03:10;;;;;;;2.03;1.50;;;24.90;54.00;;;;;;5052538;28;20223;-60
2023/03/01 02:05:45;;;;;;;1.88;1.38;;;25.00;54.10;;;;;;5053545;28;20199;-60
2023/03/01 02:08:19;;;;;;;2.30;1.60;;;25.00;54.10;;;;;;5053014;28;20562;-60
2023/03/01 02:10:51;;;;;;;3.45;1.60;;;25.10;54.10;;;;;;5052705;28;20227;-60
2023/03/01 02:13:22;;;;;;;2.03;1.50;;;25.10;54.00;;;;;;5052705;28;20273;-59
2023/03/01 02:15:53;;;;;;;1.80;1.70;;;25.10;53.90;;;;;;5052919;28;20201;-60
2023/03/01 02:18:29;;;;;;;2.42;1.55;;;25.10;54.30;;;;;;5052484;28;20200;-60
2023/03/01 02:21:14;;;;;;;2.35;1.40;;;25.10;53.70;;;;;;5051849;28;20292;-60
2023/03/01 02:23:45;;;;;;;2.08;1.55;;;25.20;53.70;;;;;;5051787;28;20242;-60
2023/03/01 02:26:26;;;;;;;2.05;1.27;;;25.20;53.60;;;;;;5051731;28;20607;-60
2023/03/01 02:28:59;;;;;;;2.03;1.48;;;25.30;53.60;;;;;;5052131;28;20293;-60
2023/03/01 02:31:45;;;;;;;1.67;1.35;;;25.30;53.50;;;;;;5052215;28;20215;-60
2023/03/01 02:34:18;;;;;;;3.30;1.70;;;25.30;53.50;;;;;;5051888;28;20699;-60
2023/03/01 02:36:50;;;;;;;2.97;1.40;;;25.30;53.40;;;;;;5052251;28;20195;-60
2023/03/01 02:39:24;;;;;;;2.05;1.48;;;25.30;53.30;;;;;;5052396;28;20191;-60
2023/03/01 02:41:57;;;;;;;2.35;1.35;;;25.40;53.40;;;;;;5052392;28;20214;-60
2023/03/01 02:44:29;;;;;;;2.20;1.58;;;25.40;53.30;;;;;;5045699;28;20212;-59
2023/03/01 02:47:03;;;;;;;1.75;1.30;;;25.40;53.30;;;;;;5032153;28;20207;-60
2023/03/01 02:49:36;;;;;;;2.03;1.55;;;25.50;53.30;;;;;;5031664;28;20239;-60
2023/03/01 02:52:32;;;;;;;1.85;1.40;;;25.50;53.10;;;;;;5032183;28;20212;-60
2023/03/01 02:55:06;;;;;;;1.77;1.50;;;25.60;53.10;;;;;;5032125;28;20196;-60
2023/03/01 02:57:39;;;;;;;2.30;1.60;;;25.60;52.90;;;;;;5046257;28;20203;-60
2023/03/01 03:00:19;;;;;;;2.55;1.20;;;25.60;52.90;;;;;;5051560;28;20192;-59
2023/03/01 03:02:50;;;;;;;2.95;1.40;;;25.70;52.90;;;;;;5051660;28;20220;-60
2023/03/01 03:05:22;;;;;;;1.42;1.15;;;25.70;52.80;;;;;;5052151;28;20203;-60
2023/03/01 03:07:54;;;;;;;1.27;1.15;;;25.80;52.90;;;;;;5051676;28;20207;-60
2023/03/01 03:10:29;;;;;;;1.83;1.55;;;25.80;52.80;;;;;;5044073;28;20215;-60
2023/03/01 03:13:04;;;;;;;1.73;1.10;;;25.90;52.90;;;;;;5031542;28;20520;-60
2023/03/01 03:15:38;;;;;;;1.95;1.45;;;25.90;52.70;;;;;;5031433;28;20195;-60
2023/03/01 03:18:11;;;;;;;1.30;1.20;;;25.90;52.60;;;;;;5031398;28;20203;-60
2023/03/01 03:20:44;;;;;;;1.92;1.40;;;25.90;52.50;;;;;;5031578;28;20341;-60
2023/03/01 03:23:15;;;;;;;2.42;1.27;;;26.00;52.50;;;;;;5031695;28;20286;-60
2023/03/01 03:25:46;;;;;;;1.35;1.25;;;26.00;52.50;;;;;;5031818;28;20210;-60
2023/03/01 03:28:17;;;;;;;2.55;1.30;;;26.10;52.50;;;;;;5050843;28;20206;-60
2023/03/01 03:30:49;;;;;;;1.45;1.05;;;26.20;52.50;;;;;;5051347;28;20226;-60
2023/03/01 03:33:20;;;;;;;1.33;1.13;;;26.20;52.50;;;;;;5051263;28;20216;-60
2023/03/01 03:35:52;;;;;;;2.40;1.40;;;26.20;52.40;;;;;;5051312;28;20200;-59
2023/03/01 03:38:23;;;;;;;1.52;1.38;;;26.30;52.40;;;;;;5051530;28;20648;-60
2023/03/01 03:41:02;;;;;;;1.85;1.40;;;26.30;52.30;;;;;;5051180;28;20199;-60
2023/03/01 03:43:34;;;;;;;3.35;1.50;;;26.40;52.30;;;;;;5051115;28;20219;-59
2023/03/01 03:46:07;;;;;;;1.20;1.10;;;26.40;52.30;;;;;;5048001;28;20198;-60
2023/03/01 03:48:38;;;;;;;1.52;1.25;;;26.50;52.30;;;;;;5051244;28;20207;-60
2023/03/01 03:51:12;;;;;;;1.52;1.00;;;26.50;52.20;;;;;;5051258;28;20235;-60
2023/03/01 03:53:43;;;;;;;1.48;1.20;;;26.60;52.20;;;;;;5051358;28;20235;-60
2023/03/01 03:56:13;;;;;;;1.20;1.08;;;26.60;52.20;;;;;;5050600;28;20244;-59
2023/03/01 03:58:44;;;;;;;1.55;1.10;;;26.60;52.10;;;;;;5050777;28;20459;-59
2023/03/01 04:01:17;;;;;;;1.63;1.05;;;26.70;52.10;;;;;;5051335;28;20208;-60
2023/03/01 04:03:48;;;;;;;1.35;1.00;;;26.70;52.00;;;;;;5050992;28;20219;-60
2023/03/01 04:06:18;;;;;;;1.63;1.00;;;26.80;52.00;;;;;;5051382;28;20192;-60
2023/03/01 04:08:58;;;;;;;1.10;1.00;;;26.80;51.90;;;;;;5051258;28;20206;-60
2023/03/01 04:11:29;;;;;;;1.83;1.15;;;26.80;51.80;;;;;;5051186;28;20774;-60
2023/03/01 04:14:01;;;;;;;1.13;1.02;;;26.90;51.70;;;;;;5050806;28;20219;-60
2023/03/01 04:16:33;;;;;;;1.60;1.13;;;26.90;51.70;;;;;;5053380;28;20677;-60
2023/03/01 04:19:06;;;;;;;0.85;0.73;;;27.00;51.60;;;;;;5055004;28;20203;-60
2023/03/01 04:21:36;;;;;;;1.27;1.05;;;27.00;51.50;;;;;;5054595;28;20199;-60
2023/03/01 04:24:08;;;;;;;1.35;1.10;;;27.00;51.40;;;;;;5054404;28;20216;-60
2023/03/01 04:26:39;;;;;;;1.80;0.90;;;27.10;51.30;;;;;;5054784;28;20227;-61
2023/03/01 04:29:10;;;;;;;1.98;0.90;;;27.10;51.20;;;;;;5054784;28;20211;-60
2023/03/01 04:31:42;;;;;;;1.10;1.00;;;27.10;51.20;;;;;;5054674;28;20695;-63
2023/03/01 04:34:13;;;;;;;0.93;0.90;;;27.10;51.20;;;;;;5054497;28;20219;-63
2023/03/01 04:36:44;;;;;;;1.38;1.20;;;27.20;51.20;;;;;;5054297;28;20257;-60
2023/03/01 04:39:15;;;;;;;1.17;0.90;;;27.20;50.90;;;;;;5054433;28;20207;-63
2023/03/01 04:41:45;;;;;;;2.33;0.90;;;27.20;50.70;;;;;;5050681;28;20207;-62
2023/03/01 04:44:16;;;;;;;2.78;1.20;;;27.20;50.50;;;;;;5034894;28;20223;-61
2023/03/01 04:46:51;;;;;;;2.08;0.90;;;27.20;50.30;;;;;;5033935;28;20211;-61
2023/03/01 04:49:22;;;;;;;4.43;1.00;;;27.20;49.70;;;;;;5034239;28;20266;-61
2023/03/01 04:51:52;;;;;;;0.80;0.60;;;27.20;48.60;;;;;;5033925;28;20228;-61
2023/03/01 04:54:23;;;;;;;2.42;0.75;;;27.20;47.50;;;;;;5041749;28;20230;-61
2023/03/01 04:56:54;;;;;;;1.80;0.55;;;27.20;47.30;;;;;;5053784;28;20207;-61
2023/03/01 04:59:24;;;;;;;2.70;0.60;;;27.10;46.60;;;;;;5053678;28;20202;-62
2023/03/01 05:02:00;;;;;;;0.57;0.57;;;27.10;45.70;;;;;;5053424;28;20210;-61
2023/03/01 05:04:30;;;;;;;0.55;0.50;;;27.10;45.80;;;;;;5050108;28;20247;-60
2023/03/01 05:07:01;;;;;;;1.13;0.55;;;27.10;45.10;;;;;;5053981;28;20200;-59
2023/03/01 05:09:32;;;;;;;1.17;0.52;;;27.10;45.00;;;;;;5036756;28;20193;-61
2023/03/01 05:12:02;;;;;;;1.52;0.63;;;27.00;45.20;;;;;;5034161;28;20234;-61
2023/03/01 05:14:33;;;;;;;2.95;0.77;;;27.00;45.40;;;;;;5033644;28;20224;-62
2023/03/01 05:17:05;;;;;;;1.63;0.60;;;27.00;45.10;;;;;;5033476;28;20586;-61
2023/03/01 05:19:37;;;;;;;19.85;7.25;;;27.00;45.10;;;;;;5033553;28;20196;-61
2023/03/01 05:22:07;;;;;;;17.63;7.28;;;27.00;44.50;;;;;;5033927;28;20208;-63
2023/03/01 05:24:38;;;;;;;10.13;3.83;;;27.00;44.50;;;;;;5033309;28;20227;-61
2023/03/01 05:27:09;;;;;;;6.63;2.40;;;27.00;43.60;;;;;;5044486;28;20203;-61
2023/03/01 05:29:40;;;;;;;5.68;2.40;;;26.90;43.50;;;;;;5053561;28;20202;-61
2023/03/01 05:32:15;;;;;;;3.92;1.88;;;26.90;43.30;;;;;;5053244;28;20235;-61
2023/03/01 05:34:46;;;;;;;3.05;1.30;;;26.90;43.30;;;;;;5053301;28;20261;-61
2023/03/01 05:37:17;;;;;;;2.40;1.17;;;26.90;42.70;;;;;;5053112;28;20601;-61
2023/03/01 05:39:50;;;;;;;4.10;1.15;;;26.90;42.70;;;;;;5053052;28;20199;-61
2023/03/01 05:42:20;;;;;;;3.35;1.15;;;26.90;42.70;;;;;;5052730;28;20200;-61
2023/03/01 05:44:51;;;;;;;3.58;1.05;;;26.90;42.50;;;;;;5052919;28;20200;-61
2023/03/01 05:47:23;;;;;;;2.50;0.93;;;26.90;41.90;;;;;;5053299;28;20196;-61
2023/03/01 05:49:54;;;;;;;2.30;0.75;;;26.90;42.10;;;;;;5053055;28;20199;-61
2023/03/01 05:52:25;;;;;;;3.70;0.73;;;26.80;41.90;;;;;;5042675;28;20250;-60
2023/03/01 05:54:56;;;;;;;1.25;0.60;;;26.80;41.60;;;;;;5034993;28;20656;-61
2023/03/01 05:57:26;;;;;;;3.60;0.98;;;26.80;41.70;;;;;;5047624;28;20715;-60
2023/03/01 05:59:57;;;;;;;2.85;0.65;;;26.80;41.50;;;;;;5053326;28;20669;-61
2023/03/01 06:02:29;;;;;;;1.95;0.70;;;26.80;41.20;;;;;;5052681;28;20203;-61
2023/03/01 06:05:00;;;;;;;1.85;0.60;;;26.80;41.50;;;;;;5052900;28;20200;-61
2023/03/01 06:07:31;;;;;;;1.85;0.70;;;26.80;41.70;;;;;;5052263;28;20199;-61
2023/03/01 06:10:01;;;;;;;2.17;0.47;;;26.80;42.10;;;;;;5052722;28;20196;-61
2023/03/01 06:12:34;;;;;;;1.17;0.60;;;26.80;42.40;;;;;;5052477;28;20656;-61
2023/03/01 06:15:06;;;;;;;2.83;0.80;;;26.80;42.60;;;;;;5052854;28;20195;-61
2023/03/01 06:17:39;;;;;;;2.05;0.50;;;26.80;42.60;;;;;;5052586;28;20231;-61
2023/03/01 06:20:13;;;;;;;2.35;0.50;;;26.90;42.40;;;;;;5052432;28;20206;-61
2023/03/01 06:22:44;;;;;;;2.58;0.93;;;26.80;42.10;;;;;;5051911;28;20279;-61
2023/03/01 06:25:15;;;;;;;1.17;0.50;;;26.80;42.00;;;;;;5052105;28;20199;-60
2023/03/01 06:27:47;;;;;;;0.80;0.60;;;26.80;41.70;;;;;;5052350;28;20210;-60
2023/03/01 06:30:18;;;;;;;0.70;0.50;;;26.80;41.40;;;;;;5052034;28;20226;-61
2023/03/01 06:32:51;;;;;;;0.73;0.52;;;26.70;41.20;;;;;;5051519;28;20220;-61
2023/03/01 06:35:22;;;;;;;2.33;0.75;;;26.70;40.90;;;;;;5051579;28;20199;-61
2023/03/01 06:37:53;;;;;;;4.60;0.70;;;26.70;40.80;;;;;;5051729;28;20206;-61
2023/03/01 06:40:23;;;;;;;2.10;0.70;;;26.60;40.60;;;;;;5051484;28;20195;-61
2023/03/01 06:42:54;;;;;;;1.10;0.60;;;26.50;40.70;;;;;;5051903;28;20226;-61
2023/03/01 06:45:26;;;;;;;1.40;0.55;;;26.50;40.80;;;;;;5052150;28;20192;-61
2023/03/01 06:48:05;;;;;;;1.95;0.57;;;26.50;41.00;;;;;;5051947;28;20195;-61
2023/03/01 06:50:36;;;;;;;2.58;0.82;;;26.50;40.90;;;;;;5051858;28;20264;-61
2023/03/01 06:53:07;;;;;;;2.08;0.77;;;26.40;41.00;;;;;;5051649;28;20222;-59
2023/03/01 06:55:38;;;;;;;1.40;0.63;;;26.40;41.20;;;;;;5040674;28;20229;-61
2023/03/01 06:58:08;;;;;;;1.58;0.50;;;26.40;41.30;;;;;;5031450;28;20211;-61
2023/03/01 07:00:40;;;;;;;0.60;0.50;;;26.30;41.40;;;;;;5031792;28;20200;-61
2023/03/01 07:03:13;;;;;;;1.40;0.70;;;26.30;41.50;;;;;;5031892;28;20219;-60
2023/03/01 07:05:44;;;;;;;1.58;0.60;;;26.30;41.70;;;;;;5034578;28;20195;-58
2023/03/01 07:08:15;;;;;;;1.13;0.50;;;26.20;41.70;;;;;;5031746;28;20574;-59
2023/03/01 07:10:45;;;;;;;1.27;0.80;;;26.20;42.10;;;;;;5031066;28;20208;-59
2023/03/01 07:13:16;;;;;;;1.23;0.60;;;26.20;42.40;;;;;;5031253;28;20688;-59
2023/03/01 07:15:47;;;;;;;0.57;0.40;;;26.20;42.70;;;;;;5039694;28;20656;-58
2023/03/01 07:18:19;;;;;;;0.75;0.50;;;26.20;42.90;;;;;;5051712;28;20660;-59
2023/03/01 07:20:50;;;;;;;1.13;0.60;;;26.20;43.10;;;;;;5051732;28;20210;-59
2023/03/01 07:23:20;;;;;;;0.75;0.50;;;26.20;43.30;;;;;;5051465;28;20212;-59
2023/03/01 07:25:55;;;;;;;1.17;0.70;;;26.30;43.40;;;;;;5051127;28;20651;-59
2023/03/01 07:28:27;;;;;;;0.77;0.47;;;26.30;43.40;;;;;;5050805;28;20195;-59
2023/03/01 07:30:57;;;;;;;0.88;0.50;;;26.30;43.50;;;;;;5030814;28;20222;-59
2023/03/01 07:33:30;;;;;;;1.40;0.55;;;26.30;44.20;;;;;;5031015;28;20220;-60
2023/03/01 07:36:01;;;;;;;0.88;0.50;;;26.40;43.70;;;;;;5031424;28;20200;-61
2023/03/01 07:38:32;;;;;;;1.10;0.63;;;26.30;43.80;;;;;;5030920;28;20200;-60
2023/03/01 07:41:04;;;;;;;1.17;0.65;;;26.40;44.00;;;;;;5031380;28;20200;-60
2023/03/01 07:43:35;;;;;;;1.15;0.50;;;26.40;44.10;;;;;;5031606;28;20216;-60
2023/03/01 07:46:06;;;;;;;1.25;0.68;;;26.40;44.10;;;;;;5034079;28;20189;-59
2023/03/01 07:48:38;;;;;;;1.40;0.70;;;26.40;44.00;;;;;;5031585;28;20200;-59
2023/03/01 07:51:10;;;;;;;1.50;0.50;;;26.40;44.10;;;;;;5032988;28;20230;-60
2023/03/01 07:53:41;;;;;;;1.05;0.60;;;26.50;44.20;;;;;;5034980;28;20755;-59
2023/03/01 07:56:14;;;;;;;1.63;0.77;;;26.50;44.20;;;;;;5039374;28;20203;-59
2023/03/01 07:58:45;;;;;;;1.20;0.52;;;26.40;44.20;;;;;;5055564;28;20585;-59
2023/03/01 08:01:17;;;;;;;2.40;1.00;;;26.50;44.30;;;;;;5055048;28;20655;-59
2023/03/01 08:03:50;;;;;;;1.73;0.65;;;26.50;44.20;;;;;;5054704;28;20710;-59
2023/03/01 08:06:21;;;;;;;1.95;0.55;;;26.50;44.30;;;;;;5055711;28;20644;-59
2023/03/01 08:08:51;;;;;;;1.98;0.60;;;26.50;44.40;;;;;;5055305;28;20200;-59
2023/03/01 08:11:22;;;;;;;0.50;0.45;;;26.50;44.40;;;;;;5054639;28;20242;-59
2023/03/01 08:13:53;;;;;;;0.98;0.55;;;26.50;44.50;;;;;;5054910;28;20227;-60
2023/03/01 08:16:24;;;;;;;0.80;0.50;;;26.50;44.60;;;;;;5054899;28;20195;-59
2023/03/01 08:19:00;;;;;;;0.60;0.50;;;26.50;44.70;;;;;;5054615;28;20202;-59
2023/03/01 08:21:31;;;;;;;1.10;0.60;;;26.50;44.70;;;;;;5054417;28;20199;-59
2023/03/01 08:24:01;;;;;;;1.75;0.50;;;26.50;44.80;;;;;;5054129;28;20641;-59
2023/03/01 08:26:32;;;;;;;2.05;0.50;;;26.50;44.70;;;;;;5054492;28;20204;-59
2023/03/01 08:29:03;;;;;;;0.85;0.50;;;26.50;44.70;;;;;;5054827;28;20206;-59
2023/03/01 08:31:37;;;;;;;0.57;0.57;;;26.50;44.60;;;;;;5054113;28;20234;-59
2023/03/01 08:34:11;;;;;;;1.35;0.63;;;26.50;44.60;;;;;;5054529;28;20622;-59
2023/03/01 08:36:43;;;;;;;0.90;0.50;;;26.50;44.60;;;;;;5054124;28;20203;-59
2023/03/01 08:39:15;;;;;;;1.30;0.70;;;26.50;44.60;;;;;;5054304;28;20198;-59
2023/03/01 08:41:46;;;;;;;0.90;0.50;;;26.40;44.50;;;;;;5053911;28;20225;-59
2023/03/01 08:44:18;;;;;;;1.30;0.50;;;26.40;44.50;;;;;;5054227;28;20223;-59
2023/03/01 08:46:49;;;;;;;0.80;0.40;;;26.40;44.50;;;;;;5054097;28;20196;-59
2023/03/01 08:49:23;;;;;;;0.93;0.60;;;26.40;45.20;;;;;;5053959;28;20203;-59
2023/03/01 08:51:54;;;;;;;0.90;0.50;;;26.40;44.60;;;;;;5054217;28;20223;-58
2023/03/01 08:54:25;;;;;;;0.50;0.50;;;26.40;45.40;;;;;;5044388;28;20302;-59
2023/03/01 08:56:56;;;;;;;0.90;0.70;;;26.40;44.80;;;;;;5034720;28;20204;-60
2023/03/01 08:59:29;;;;;;;0.80;0.60;;;26.40;44.80;;;;;;5034345;28;20196;-59
2023/03/01 09:02:00;;;;;;;0.82;0.70;;;26.40;44.80;;;;;;5034183;28;20232;-60
2023/03/01 09:04:33;;;;;;;0.60;0.50;;;26.40;44.80;;;;;;5035900;28;20213;-59
2023/03/01 09:07:03;;;;;;;0.95;0.75;;;26.40;44.80;;;;;;5034906;28;20247;-59
2023/03/01 09:09:34;;;;;;;1.92;0.80;;;26.40;44.70;;;;;;5034455;28;20199;-59
2023/03/01 09:12:05;;;;;;;0.60;0.60;;;26.30;44.70;;;;;;5034648;28;20223;-59
2023/03/01 09:14:37;;;;;;;0.88;0.60;;;26.40;44.70;;;;;;5033998;28;20711;-59
2023/03/01 09:17:07;;;;;;;1.00;0.50;;;26.40;44.80;;;;;;5033860;28;20196;-59
2023/03/01 09:19:40;;;;;;;0.50;0.50;;;26.30;44.70;;;;;;5034226;28;20204;-59
2023/03/01 09:22:11;;;;;;;0.50;0.47;;;26.30;44.70;;;;;;5033697;28;20271;-59
2023/03/01 09:24:41;;;;;;;0.40;0.40;;;26.20;44.70;;;;;;5033531;28;20220;-59
2023/03/01 09:27:13;;;;;;;0.73;0.50;;;26.20;44.70;;;;;;5046044;28;20196;-59
2023/03/01 09:29:44;;;;;;;0.88;0.47;;;26.20;44.80;;;;;;5053317;28;20195;-59
2023/03/01 09:32:15;;;;;;;2.28;0.70;;;26.30;44.90;;;;;;5053245;28;20695;-59
2023/03/01 09:37:31;;;;;;;0.50;0.40;;;26.20;44.80;;;;;;5049978;28;20528;-59
2023/03/01 09:40:01;;;;;;;0.43;0.32;;;26.20;44.90;;;;;;5052867;28;20210;-59
2023/03/01 09:42:34;;;;;;;1.13;0.65;;;26.20;45.00;;;;;;5052742;28;20221;-59
2023/03/01 09:45:07;;;;;;;0.80;0.50;;;26.20;45.00;;;;;;5049597;28;20192;-59
2023/03/01 09:47:40;;;;;;;1.05;0.50;;;26.20;44.90;;;;;;5052609;28;20656;-60
2023/03/01 09:50:16;;;;;;;0.60;0.40;;;26.20;44.90;;;;;;5052585;28;20203;-59
2023/03/01 09:52:53;;;;;;;0.85;0.52;;;26.20;45.00;;;;;;5052967;28;20230;-59
2023/03/01 09:55:32;;;;;;;0.70;0.47;;;26.20;45.00;;;;;;5053053;28;20213;-59
2023/03/01 09:58:08;;;;;;;0.80;0.57;;;26.20;45.00;;;;;;5052677;28;20206;-59
2023/03/01 10:00:44;;;;;;;0.70;0.50;;;26.10;44.90;;;;;;5052783;28;20195;-59
2023/03/01 10:03:23;;;;;;;0.43;0.43;;;26.10;45.00;;;;;;5052821;28;20218;-59
2023/03/01 10:06:11;;;;;;;0.50;0.45;;;26.10;45.00;;;;;;5053094;28;20206;-59
2023/03/01 10:08:45;;;;;;;0.88;0.50;;;26.00;45.00;;;;;;5052561;28;20674;-59
2023/03/01 10:11:24;;;;;;;0.40;0.40;;;26.10;45.10;;;;;;5052587;28;20199;-59
2023/03/01 10:14:01;;;;;;;0.65;0.40;;;26.00;45.10;;;;;;5051878;28;20238;-59
2023/03/01 10:16:40;;;;;;;1.00;0.45;;;26.00;45.10;;;;;;5052196;28;20722;-59
2023/03/01 10:19:19;;;;;;;0.60;0.50;;;26.00;45.10;;;;;;5052223;28;20222;-59
2023/03/01 10:21:53;;;;;;;0.73;0.50;;;26.00;45.20;;;;;;5052309;28;20211;-59
2023/03/01 10:24:24;;;;;;;0.90;0.57;;;26.00;45.20;;;;;;5050592;28;20227;-59
2023/03/01 10:26:59;;;;;;;2.05;0.60;;;25.90;45.10;;;;;;5042465;28;20199;-58
2023/03/01 10:29:37;;;;;;;0.50;0.50;;;25.90;45.20;;;;;;5052323;28;20202;-59
2023/03/01 10:32:08;;;;;;;0.63;0.40;;;25.90;45.10;;;;;;5051492;28;20694;-58
2023/03/01 10:34:39;;;;;;;0.70;0.50;;;25.90;45.20;;;;;;5051629;28;20281;-59
2023/03/01 10:37:18;;;;;;;0.98;0.50;;;25.90;45.20;;;;;;5052034;28;20199;-59
2023/03/01 10:40:08;;;;;;;0.68;0.40;;;25.90;45.20;;;;;;5041066;28;20204;-59
2023/03/01 10:42:41;;;;;;;1.00;0.50;;;25.90;45.30;;;;;;5031920;28;20207;-58
2023/03/01 10:45:33;;;;;;;0.60;0.40;;;25.90;45.30;;;;;;5032149;28;20204;-59
2023/03/01 10:48:15;;;;;;;0.40;0.40;;;25.90;45.30;;;;;;5023039;28;20208;-59
2023/03/01 10:50:47;;;;;;;0.90;0.40;;;25.80;45.30;;;;;;5032037;28;20584;-59
2023/03/01 10:53:28;;;;;;;0.40;0.30;;;25.80;45.30;;;;;;5033769;28;20228;-59
2023/03/01 10:56:07;;;;;;;0.43;0.40;;;25.80;45.30;;;;;;5039848;28;20382;-59
2023/03/01 10:58:39;;;;;;;0.70;0.60;;;25.80;45.40;;;;;;5038501;28;20215;-59
2023/03/01 11:01:28;;;;;;;0.70;0.60;;;25.80;45.40;;;;;;5040342;28;20202;-59
2023/03/01 11:04:15;;;;;;;0.28;0.28;;;25.80;45.30;;;;;;5037347;28;20239;-59
2023/03/01 11:06:45;;;;;;;0.50;0.40;;;25.80;45.40;;;;;;5040110;28;20200;-59
2023/03/01 11:09:23;;;;;;;0.40;0.40;;;25.80;45.30;;;;;;5039726;28;20685;-59
2023/03/01 11:11:57;;;;;;;1.25;0.52;;;25.80;45.40;;;;;;5051541;28;20206;-59
2023/03/01 11:14:29;;;;;;;1.35;0.47;;;25.70;45.30;;;;;;5051393;28;20228;-59
2023/03/01 11:17:04;;;;;;;0.50;0.50;;;25.70;45.40;;;;;;5050933;28;20192;-59
2023/03/01 11:19:35;;;;;;;0.47;0.47;;;25.70;45.40;;;;;;5051048;28;20745;-59
2023/03/01 11:22:10;;;;;;;0.95;0.50;;;25.70;45.50;;;;;;5051743;28;20200;-59
2023/03/01 11:24:47;;;;;;;0.50;0.47;;;25.70;45.50;;;;;;5047377;28;20219;-59
2023/03/01 11:27:22;;;;;;;0.88;0.57;;;25.70;45.60;;;;;;5043941;28;20213;-59
2023/03/01 11:29:58;;;;;;;0.47;0.45;;;25.60;45.50;;;;;;5031766;28;20203;-59
2023/03/01 11:32:33;;;;;;;0.68;0.68;;;25.60;45.50;;;;;;5031265;28;20622;-59
2023/03/01 11:35:11;;;;;;;0.32;0.32;;;25.60;45.60;;;;;;5031403;28;20679;-59
2023/03/01 11:37:46;;;;;;;0.88;0.50;;;25.60;45.60;;;;;;5031187;28;20195;-59
2023/03/01 11:40:25;;;;;;;1.20;0.50;;;25.60;45.60;;;;;;5033764;28;20191;-59
2023/03/01 11:43:12;;;;;;;0.40;0.40;;;25.60;45.60;;;;;;5031388;28;20216;-59
2023/03/01 11:45:55;;;;;;;1.67;0.50;;;25.60;45.60;;;;;;5031204;28;20203;-59
2023/03/01 11:48:50;;;;;;;0.50;0.50;;;25.60;45.60;;;;;;5031410;28;20557;-58
2023/03/01 11:51:27;;;;;;;0.47;0.47;;;25.50;45.60;;;;;;5028553;28;20208;-58
2023/03/01 11:54:16;;;;;;;0.30;0.30;;;25.50;45.50;;;;;;5031402;28;20232;-58
2023/03/01 11:56:52;;;;;;;0.50;0.50;;;25.50;45.60;;;;;;5040097;28;20203;-59
2023/03/01 11:59:54;;;;;;;0.60;0.40;;;25.50;45.60;;;;;;5050929;28;20667;-58
2023/03/01 12:02:42;;;;;;;0.60;0.50;;;25.50;45.60;;;;;;5050595;28;20198;-59
2023/03/01 12:05:50;;;;;;;0.32;0.30;;;25.50;45.60;;;;;;5050944;28;20203;-59
2023/03/01 12:08:27;;;;;;;0.30;0.30;;;25.40;45.70;;;;;;5040205;28;20199;-58
2023/03/01 12:11:06;;;;;;;0.50;0.50;;;25.50;45.70;;;;;;5050285;28;20199;-58
2023/03/01 12:14:26;;;;;;;0.52;0.40;;;25.40;45.70;;;;;;5049632;28;20238;-58
2023/03/01 12:17:22;;;;;;;0.60;0.40;;;25.40;45.70;;;;;;5031010;28;20223;-58
2023/03/01 12:20:13;;;;;;;0.50;0.32;;;25.40;45.70;;;;;;5022606;28;20199;-59
2023/03/01 12:22:55;;;;;;;0.32;0.32;;;25.40;45.70;;;;;;5031241;28;20716;-58
2023/03/01 12:25:35;;;;;;;0.75;0.40;;;25.40;45.70;;;;;;5031003;28;20561;-58
2023/03/01 12:28:30;;;;;;;0.40;0.38;;;25.30;45.70;;;;;;5030511;28;20196;-58
2023/03/01 12:31:28;;;;;;;0.35;0.28;;;25.30;45.70;;;;;;5030765;28;20648;-59
2023/03/01 12:34:04;;;;;;;0.52;0.50;;;25.30;45.70;;;;;;5030526;28;20235;-59
2023/03/01 12:37:20;;;;;;;0.73;0.50;;;25.30;45.70;;;;;;5031400;28;20195;-59
2023/03/01 12:40:05;;;;;;;0.30;0.30;;;25.30;45.80;;;;;;5034588;28;20215;-58
2023/03/01 12:42:47;;;;;;;0.55;0.47;;;25.20;45.80;;;;;;5034640;28;20226;-59
2023/03/01 12:45:51;;;;;;;0.70;0.50;;;25.30;45.80;;;;;;5034740;28;20573;-59
2023/03/01 12:48:40;;;;;;;0.98;0.63;;;25.30;45.90;;;;;;5021416;28;20695;-58
2023/03/01 12:51:16;;;;;;;0.40;0.40;;;25.20;45.90;;;;;;5034040;28;20219;-58
2023/03/01 12:53:50;;;;;;;0.88;0.40;;;25.20;45.90;;;;;;5033936;28;20231;-58
2023/03/01 12:56:24;;;;;;;0.35;0.35;;;25.20;45.90;;;;;;5039013;28;20209;-58
2023/03/01 12:59:04;;;;;;;0.40;0.40;;;25.20;45.90;;;;;;5053396;28;20204;-58
2023/03/01 13:01:48;;;;;;;1.05;0.43;;;25.20;45.90;;;;;;5040398;28;20187;-59
2023/03/01 13:04:32;;;;;;;0.40;0.40;;;25.20;45.90;;;;;;5036476;28;20208;-59
2023/03/01 13:07:16;;;;;;;0.50;0.50;;;25.10;45.90;;;;;;5034375;28;20196;-59
2023/03/01 13:09:53;;;;;;;0.50;0.50;;;25.20;46.00;;;;;;5034157;28;20372;-59
2023/03/01 13:12:54;;;;;;;1.25;0.40;;;25.10;45.90;;;;;;5033283;28;20204;-59
2023/03/01 13:15:36;;;;;;;1.00;0.40;;;25.10;45.90;;;;;;5033380;28;20218;-58
2023/03/01 13:18:29;;;;;;;0.50;0.50;;;25.10;45.90;;;;;;5034029;28;20230;-59
2023/03/01 13:21:05;;;;;;;0.50;0.50;;;25.10;46.00;;;;;;5034214;28;20546;-59
2023/03/01 13:23:41;;;;;;;0.40;0.30;;;25.10;46.00;;;;;;5033948;28;20222;-59
2023/03/01 13:26:17;;;;;;;0.75;0.45;;;25.10;46.00;;;;;;5037987;28;20202;-59